.
WxDataArchive / Data Records for 2007-01-08
2007-01-07 January 2007 2007-01-09

Data Records for Monday, 08 January 2007

Time	Temp	Chill	HIndex	Humid	Dewpt	 Wind 	HiWind	WindDir	Rain 	Barom 
-----	----	-----	------	-----	-----	------	------	-------	-----	----- 
00:00	35.2	35.2	35.2	97	34.4	1	4	248	0.00	29.684 
00:05	35.2	35.2	35.2	97	34.4	1	5	270	0.00	29.684 
00:10	35.3	35.3	35.3	97	34.5	1	3	248	0.00	29.684 
00:15	35.3	35.3	35.3	97	34.5	2	4	248	0.00	29.676 
00:20	35.3	35.3	35.3	97	34.5	2	5	248	0.00	29.676 
00:25	35.5	35.5	35.5	97	34.7	3	9	248	0.00	29.676 
00:30	35.6	35.6	35.6	97	34.8	1	5	248	0.00	29.677 
00:35	35.6	35.6	35.6	97	34.8	2	5	248	0.00	29.677 
00:40	35.6	35.6	35.6	97	34.8	1	5	248	0.00	29.677 
00:45	35.8	35.8	35.8	97	35.0	2	4	248	0.00	29.666 
00:50	35.8	35.8	35.8	97	35.0	1	4	248	0.00	29.666 
00:55	35.9	35.9	35.9	97	35.1	2	6	270	0.00	29.666 
01:00	35.9	35.9	35.9	97	35.1	3	7	270	0.00	29.661 
01:05	36.0	36.0	36.0	97	35.2	2	4	248	0.00	29.661 
01:10	36.2	36.2	36.2	97	35.4	2	6	270	0.00	29.661 
01:15	36.3	33.0	36.3	97	35.5	4	12	270	0.00	29.660 
01:20	36.5	36.5	36.5	97	35.7	3	10	270	0.00	29.660 
01:25	36.5	36.5	36.5	96	35.5	3	10	248	0.00	29.660 
01:30	36.5	32.4	36.5	96	35.5	5	11	248	0.00	29.658 
01:35	36.6	36.6	36.6	96	35.6	3	9	270	0.00	29.658 
01:40	36.8	33.6	36.8	95	35.5	4	9	248	0.00	29.658 
01:45	36.9	36.9	36.9	95	35.6	3	7	248	0.00	29.649 
01:50	37.0	33.9	37.0	95	35.7	4	10	248	0.00	29.649 
01:55	37.0	37.0	37.0	95	35.7	3	7	270	0.00	29.649 
02:00	37.2	33.2	37.2	95	35.9	5	16	270	0.00	29.653 
02:05	36.9	32.8	36.9	94	35.3	5	11	270	0.00	29.653 
02:10	36.6	31.7	36.6	92	34.5	6	14	270	0.00	29.653 
02:15	35.8	30.1	35.8	88	32.6	7	15	270	0.00	29.667 
02:20	35.2	30.8	35.2	87	31.7	5	11	270	0.00	29.667 
02:25	34.9	31.4	34.9	88	31.7	4	9	270	0.00	29.667 
02:30	34.7	31.2	34.7	89	31.8	4	7	270	0.00	29.679 
02:35	34.6	34.6	34.6	89	31.7	3	8	270	0.00	29.679 
02:40	34.4	34.4	34.4	90	31.8	3	6	270	0.00	29.679 
02:45	34.3	30.7	34.3	90	31.7	4	7	270	0.00	29.681 
02:50	34.1	34.1	34.1	90	31.5	3	11	270	0.00	29.681 
02:55	34.1	30.5	34.1	90	31.5	4	9	270	0.00	29.681 
03:00	34.1	34.1	34.1	90	31.5	3	7	270	0.00	29.688 
03:05	34.1	30.5	34.1	90	31.5	4	12	270	0.00	29.688 
03:10	34.1	34.1	34.1	90	31.5	3	7	270	0.00	29.688 
03:15	34.1	34.1	34.1	90	31.5	3	12	270	0.00	29.693 
03:20	34.1	30.5	34.1	89	31.2	4	9	270	0.00	29.693 
03:25	34.1	30.5	34.1	88	30.9	4	12	270	0.00	29.693 
03:30	34.1	29.5	34.1	87	30.6	5	10	270	0.00	29.699 
03:35	34.1	30.5	34.1	86	30.4	4	14	270	0.00	29.699 
03:40	34.3	29.8	34.3	84	30.0	5	12	270	0.00	29.699 
03:45	34.1	29.5	34.1	83	29.5	5	18	270	0.00	29.706 
03:50	34.1	30.5	34.1	82	29.2	4	12	270	0.00	29.706 
03:55	34.1	30.5	34.1	82	29.2	4	14	270	0.00	29.706 
04:00	34.1	30.5	34.1	83	29.5	4	10	270	0.00	29.707 
04:05	34.0	30.4	34.0	82	29.1	4	12	270	0.00	29.707 
04:10	33.8	30.2	33.8	82	28.9	4	12	270	0.00	29.707 
04:15	33.8	29.2	33.8	81	28.6	5	13	270	0.00	29.708 
04:20	33.7	30.0	33.7	81	28.5	4	8	270	0.00	29.708 
04:25	33.7	30.0	33.7	81	28.5	4	17	270	0.00	29.708 
04:30	33.7	30.0	33.7	81	28.5	4	10	270	0.00	29.711 
04:35	33.5	28.8	33.5	81	28.3	5	14	270	0.00	29.711 
04:40	33.5	29.8	33.5	81	28.3	4	11	270	0.00	29.711 
04:45	33.4	33.4	33.4	81	28.2	3	11	270	0.00	29.714 
04:50	33.4	28.7	33.4	81	28.2	5	12	270	0.00	29.714 
04:55	33.4	28.7	33.4	81	28.2	5	14	270	0.00	29.714 
05:00	33.4	28.7	33.4	80	27.9	5	12	270	0.00	29.719 
05:05	33.4	27.9	33.4	79	27.6	6	18	270	0.00	29.719 
05:10	33.4	28.7	33.4	79	27.6	5	14	270	0.00	29.719 
05:15	33.4	28.7	33.4	79	27.6	5	14	270	0.00	29.725 
05:20	33.4	29.7	33.4	80	27.9	4	9	270	0.00	29.725 
05:25	33.2	29.5	33.2	80	27.7	4	12	270	0.00	29.725 
05:30	33.1	33.1	33.1	83	28.5	3	9	270	0.00	29.727 
05:35	32.5	27.7	32.5	87	29.1	5	14	270	0.00	29.727 
05:40	31.9	27.0	31.9	89	29.0	5	12	270	0.00	29.727 
05:45	31.5	26.5	31.5	91	29.2	5	15	270	0.00	29.742 
05:50	31.2	27.2	31.2	92	29.2	4	14	270	0.00	29.742 
05:55	31.0	25.0	31.0	92	29.0	6	14	270	0.00	29.742 
06:00	31.0	25.9	31.0	92	29.0	5	11	270	0.00	29.747 
06:05	31.0	25.0	31.0	91	28.7	6	14	270	0.00	29.747 
06:10	31.0	25.9	31.0	89	28.1	5	12	270	0.00	29.747 
06:15	31.2	26.1	31.2	87	27.8	5	11	270	0.00	29.751 
06:20	31.3	26.3	31.3	85	27.3	5	14	270	0.00	29.751 
06:25	31.5	25.6	31.5	82	26.7	6	19	270	0.00	29.751 
06:30	31.5	25.6	31.5	81	26.4	6	15	270	0.00	29.758 
06:35	31.5	26.5	31.5	81	26.4	5	15	270	0.00	29.758 
06:40	31.3	26.3	31.3	80	25.9	5	11	270	0.00	29.758 
06:45	31.5	25.6	31.5	78	25.4	6	19	270	0.00	29.765 
06:50	31.3	25.4	31.3	75	24.3	6	17	270	0.00	29.765 
06:55	31.3	24.7	31.3	69	22.3	7	18	270	0.00	29.765 
07:00	31.3	25.4	31.3	67	21.6	6	16	270	0.00	29.773 
07:05	31.2	25.3	31.2	64	20.5	6	16	270	0.00	29.773 
07:10	31.0	25.0	31.0	63	19.9	6	14	270	0.00	29.773 
07:15	30.9	25.8	30.9	62	19.4	5	16	270	0.00	29.777 
07:20	30.7	24.7	30.7	61	18.9	6	15	270	0.00	29.777 
07:25	30.7	25.5	30.7	62	19.2	5	12	270	0.00	29.777 
07:30	30.7	25.5	30.7	61	18.9	5	13	270	0.00	29.783 
07:35	30.7	26.6	30.7	62	19.2	4	13	270	0.00	29.783 
07:40	30.6	26.5	30.6	64	19.9	4	13	270	0.00	29.783 
07:45	30.6	24.6	30.6	66	20.6	6	15	270	0.00	29.791 
07:50	30.6	24.6	30.6	68	21.3	6	16	270	0.00	29.791 
07:55	30.3	23.4	30.3	70	21.7	7	16	270	0.00	29.791 
08:00	30.1	22.5	30.1	70	21.5	8	17	270	0.00	29.795 
08:05	30.0	23.8	30.0	71	21.8	6	16	270	0.00	29.795 
08:10	29.8	22.8	29.8	71	21.6	7	15	270	0.00	29.795 
08:15	29.7	24.4	29.7	71	21.5	5	15	270	0.00	29.804 
08:20	29.5	23.3	29.5	70	20.9	6	17	270	0.00	29.804 
08:25	29.5	22.5	29.5	70	20.9	7	17	270	0.00	29.804 
08:30	29.4	25.1	29.4	71	21.2	4	10	270	0.00	29.814 
08:35	29.3	23.9	29.3	71	21.1	5	12	270	0.00	29.814 
08:40	29.3	23.9	29.3	71	21.1	5	11	270	0.00	29.814 
08:45	29.3	23.9	29.3	71	21.1	5	13	270	0.00	29.824 
08:50	29.3	23.9	29.3	71	21.1	5	14	270	0.00	29.824 
08:55	29.1	22.0	29.1	70	20.6	7	17	270	0.00	29.824 
09:00	29.3	21.6	29.3	69	20.4	8	18	270	0.00	29.827 
09:05	29.3	23.0	29.3	70	20.8	6	14	270	0.00	29.827 
09:10	29.3	23.9	29.3	70	20.8	5	12	270	0.00	29.827 
09:15	29.4	22.4	29.4	70	20.8	7	18	270	0.00	29.830 
09:20	29.4	24.0	29.4	69	20.5	5	11	270	0.00	29.830 
09:25	29.5	23.3	29.5	69	20.6	6	13	270	0.00	29.830 
09:30	29.5	23.3	29.5	69	20.6	6	13	270	0.00	29.837 
09:35	29.7	22.0	29.7	67	20.1	8	18	270	0.00	29.837 
09:40	29.7	22.7	29.7	67	20.1	7	17	270	0.00	29.837 
09:45	29.5	22.5	29.5	67	19.9	7	18	270	0.00	29.848 
09:50	29.5	21.8	29.5	67	19.9	8	20	270	0.00	29.848 
09:55	29.7	23.5	29.7	68	20.5	6	17	270	0.00	29.848 
10:00	29.8	22.2	29.8	68	20.5	8	17	270	0.00	29.858 
10:05	29.7	23.5	29.7	69	20.8	6	19	270	0.00	29.858 
10:10	29.5	23.3	29.5	69	20.6	6	14	270	0.00	29.858 
10:15	29.5	25.2	29.5	70	20.9	4	11	270	0.00	29.857 
10:20	29.8	25.5	29.8	72	21.9	4	14	270	0.00	29.857 
10:25	29.7	25.4	29.7	70	21.1	4	11	270	0.00	29.857 
10:30	29.5	23.3	29.5	71	21.3	6	13	270	0.00	29.866 
10:35	29.4	22.4	29.4	70	20.8	7	13	270	0.00	29.866 
10:40	29.7	24.4	29.7	70	21.1	5	14	270	0.00	29.866 
10:45	30.1	24.0	30.1	70	21.5	6	16	270	0.00	29.866 
10:50	30.4	25.2	30.4	71	22.1	5	13	270	0.00	29.866 
10:55	30.6	24.6	30.6	69	21.7	6	12	270	0.00	29.866 
11:00	30.9	26.8	30.9	70	22.3	4	11	270	0.00	29.866 
11:05	30.9	26.8	30.9	70	22.3	4	11	270	0.00	29.866 
11:10	31.0	26.9	31.0	69	22.0	4	10	270	0.00	29.866 
11:15	30.9	25.8	30.9	69	21.9	5	13	270	0.00	29.867 
11:20	31.0	25.9	31.0	67	21.3	5	10	270	0.00	29.867 
11:25	31.3	26.3	31.3	67	21.6	5	13	248	0.00	29.867 
11:30	31.5	25.6	31.5	66	21.5	6	14	270	0.00	29.861 
11:35	31.5	26.5	31.5	67	21.8	5	17	270	0.00	29.861 
11:40	31.8	26.0	31.8	66	21.8	6	16	270	0.00	29.861 
11:45	31.8	27.8	31.8	66	21.8	4	11	270	0.00	29.860 
11:50	32.1	27.2	32.1	66	22.0	5	10	270	0.00	29.860 
11:55	32.1	27.2	32.1	64	21.3	5	10	270	0.00	29.860 
12:00	32.2	26.5	32.2	64	21.4	6	15	270	0.00	29.856 
12:05	32.1	25.6	32.1	63	20.9	7	14	270	0.00	29.856 
12:10	32.2	26.5	32.2	64	21.4	6	13	270	0.00	29.856 
12:15	32.7	27.9	32.7	64	21.9	5	16	270	0.00	29.853 
12:20	32.7	27.1	32.7	63	21.5	6	12	270	0.00	29.853 
12:25	32.9	27.3	32.9	62	21.3	6	14	270	0.00	29.853 
12:30	32.8	27.2	32.8	62	21.2	6	14	270	0.00	29.856 
12:35	32.9	28.1	32.9	62	21.3	5	13	270	0.00	29.856 
12:40	33.4	28.7	33.4	62	21.8	5	14	270	0.00	29.856 
12:45	33.4	27.9	33.4	63	22.2	6	15	270	0.00	29.852 
12:50	33.5	28.8	33.5	61	21.5	5	14	270	0.00	29.852 
12:55	33.7	29.1	33.7	60	21.3	5	12	270	0.00	29.852 
13:00	33.7	28.3	33.7	62	22.1	6	13	270	0.00	29.850 
13:05	34.0	29.4	34.0	62	22.4	5	11	270	0.00	29.850 
13:10	34.3	30.7	34.3	61	22.3	4	12	270	0.00	29.850 
13:15	34.3	29.0	34.3	57	20.7	6	15	248	0.00	29.843 
13:20	34.4	29.9	34.4	58	21.2	5	11	270	0.00	29.843 
13:25	34.6	30.1	34.6	57	21.0	5	11	270	0.00	29.843 
13:30	34.7	29.4	34.7	57	21.0	6	16	270	0.00	29.841 
13:35	35.2	31.8	35.2	57	21.5	4	10	292	0.00	29.841 
13:40	35.5	32.1	35.5	57	21.8	4	11	270	0.00	29.841 
13:45	35.6	32.2	35.6	56	21.5	4	14	270	0.00	29.836 
13:50	35.6	31.3	35.6	55	21.0	5	17	270	0.00	29.836 
13:55	35.8	31.5	35.8	57	22.1	5	13	270	0.00	29.836 
14:00	35.8	31.5	35.8	55	21.2	5	13	270	0.00	29.833 
14:05	35.9	32.6	35.9	55	21.3	4	7	270	0.00	29.833 
14:10	36.0	31.8	36.0	56	21.8	5	14	270	0.00	29.833 
14:15	36.3	33.0	36.3	59	23.4	4	10	270	0.00	29.842 
14:20	36.3	32.1	36.3	57	22.5	5	16	270	0.00	29.842 
14:25	36.6	33.4	36.6	57	22.8	4	12	270	0.00	29.842 
14:30	36.5	31.6	36.5	57	22.7	6	12	270	0.00	29.837 
14:35	36.6	36.6	36.6	60	24.0	3	7	270	0.00	29.837 
14:40	37.0	37.0	37.0	61	24.8	3	11	248	0.00	29.837 
14:45	37.0	32.2	37.0	59	24.0	6	13	270	0.00	29.838 
14:50	37.2	34.1	37.2	59	24.2	4	11	270	0.00	29.838 
14:55	37.2	32.4	37.2	57	23.4	6	16	248	0.00	29.838 
15:00	37.3	33.3	37.3	57	23.5	5	13	270	0.00	29.838 
15:05	37.5	37.5	37.5	59	24.5	3	11	270	0.00	29.838 
15:10	37.8	37.8	37.8	59	24.8	3	7	248	0.00	29.838 
15:15	37.8	33.9	37.8	58	24.4	5	15	270	0.00	29.838 
15:20	37.8	34.8	37.8	56	23.5	4	12	270	0.00	29.838 
15:25	37.9	34.9	37.9	57	24.0	4	10	270	0.00	29.838 
15:30	38.2	35.2	38.2	55	23.5	4	14	270	0.00	29.841 
15:35	38.5	34.0	38.5	53	22.9	6	13	270	0.00	29.841 
15:40	38.8	35.9	38.8	52	22.7	4	10	270	0.00	29.841 
15:45	38.8	34.3	38.8	51	22.2	6	12	270	0.00	29.844 
15:50	38.8	35.1	38.8	52	22.7	5	11	270	0.00	29.844 
15:55	38.9	35.2	38.9	51	22.3	5	12	248	0.00	29.844 
16:00	38.9	35.2	38.9	50	21.9	5	12	248	0.00	29.848 
16:05	38.9	38.9	38.9	51	22.3	3	7	270	0.00	29.848 
16:10	38.3	35.4	38.3	53	22.7	4	12	270	0.00	29.848 
16:15	38.2	34.4	38.2	53	22.6	5	13	248	0.00	29.851 
16:20	38.0	35.0	38.0	54	22.9	4	10	270	0.00	29.851 
16:25	38.0	35.0	38.0	53	22.4	4	16	270	0.00	29.851 
16:30	38.0	34.1	38.0	54	22.9	5	10	270	0.00	29.853 
16:35	37.9	37.9	37.9	55	23.2	3	8	248	0.00	29.853 
16:40	37.8	37.8	37.8	54	22.7	3	10	248	0.00	29.853 
16:45	37.5	34.4	37.5	56	23.2	4	8	248	0.00	29.859 
16:50	37.3	37.3	37.3	56	23.1	3	9	248	0.00	29.859 
16:55	37.2	37.2	37.2	57	23.4	3	6	248	0.00	29.859 
17:00	37.0	33.9	37.0	57	23.2	4	13	248	0.00	29.860 
17:05	36.9	33.7	36.9	58	23.5	4	10	248	0.00	29.860 
17:10	36.8	36.8	36.8	58	23.4	2	6	248	0.00	29.860 
17:15	36.6	36.6	36.6	59	23.6	2	6	248	0.00	29.861 
17:20	36.6	36.6	36.6	59	23.6	2	5	270	0.00	29.861 
17:25	36.6	36.6	36.6	59	23.6	2	6	248	0.00	29.861 
17:30	36.6	36.6	36.6	59	23.6	3	6	248	0.00	29.861 
17:35	36.6	36.6	36.6	58	23.2	2	6	248	0.00	29.861 
17:40	36.6	36.6	36.6	58	23.2	3	5	248	0.00	29.861 
17:45	36.6	36.6	36.6	57	22.8	3	7	248	0.00	29.866 
17:50	36.6	36.6	36.6	57	22.8	3	5	248	0.00	29.866 
17:55	36.6	36.6	36.6	58	23.2	2	6	248	0.00	29.866 
18:00	36.5	36.5	36.5	58	23.1	2	3	248	0.00	29.867 
18:05	36.5	36.5	36.5	58	23.1	3	10	248	0.00	29.867 
18:10	36.5	36.5	36.5	58	23.1	2	5	225	0.00	29.867 
18:15	36.5	36.5	36.5	58	23.1	2	5	248	0.00	29.868 
18:20	36.3	36.3	36.3	58	23.0	2	10	248	0.00	29.868 
18:25	36.2	36.2	36.2	58	22.9	2	7	248	0.00	29.868 
18:30	36.0	36.0	36.0	58	22.7	2	5	248	0.00	29.871 
18:35	35.9	35.9	35.9	59	23.0	2	6	248	0.00	29.871 
18:40	35.9	35.9	35.9	60	23.4	2	5	248	0.00	29.871 
18:45	35.8	35.8	35.8	61	23.7	1	3	248	0.00	29.873 
18:50	35.8	35.8	35.8	61	23.7	2	4	248	0.00	29.873 
18:55	35.8	35.8	35.8	61	23.7	2	6	248	0.00	29.873 
19:00	35.8	35.8	35.8	61	23.7	2	9	248	0.00	29.871 
19:05	35.8	35.8	35.8	61	23.7	2	7	270	0.00	29.871 
19:10	35.8	35.8	35.8	60	23.3	3	6	248	0.00	29.871 
19:15	35.9	32.6	35.9	59	23.0	4	10	248	0.00	29.876 
19:20	35.9	35.9	35.9	59	23.0	3	7	248	0.00	29.876 
19:25	35.9	35.9	35.9	59	23.0	3	7	248	0.00	29.876 
19:30	35.9	35.9	35.9	59	23.0	2	5	248	0.00	29.873 
19:35	35.8	35.8	35.8	59	22.9	2	6	248	0.00	29.873 
19:40	35.6	35.6	35.6	60	23.1	2	5	248	0.00	29.873 
19:45	35.6	35.6	35.6	60	23.1	3	11	248	0.00	29.870 
19:50	35.5	35.5	35.5	61	23.4	2	6	248	0.00	29.870 
19:55	35.5	35.5	35.5	61	23.4	3	9	248	0.00	29.870 
20:00	35.5	35.5	35.5	60	23.0	3	10	248	0.00	29.866 
20:05	35.5	35.5	35.5	60	23.0	2	4	248	0.00	29.866 
20:10	35.5	35.5	35.5	61	23.4	1	4	248	0.00	29.866 
20:15	35.3	35.3	35.3	61	23.2	2	5	248	0.00	29.862 
20:20	35.3	35.3	35.3	62	23.6	2	4	248	0.00	29.862 
20:25	35.2	35.2	35.2	61	23.1	2	5	248	0.00	29.862 
20:30	35.2	35.2	35.2	62	23.5	2	6	248	0.00	29.857 
20:35	35.2	35.2	35.2	62	23.5	2	4	248	0.00	29.857 
20:40	35.2	35.2	35.2	61	23.1	2	9	248	0.00	29.857 
20:45	35.2	35.2	35.2	61	23.1	2	7	248	0.00	29.856 
20:50	35.2	35.2	35.2	61	23.1	3	11	248	0.00	29.856 
20:55	35.3	35.3	35.3	61	23.2	3	7	248	0.00	29.856 
21:00	35.3	35.3	35.3	61	23.2	3	7	248	0.00	29.852 
21:05	35.5	32.1	35.5	61	23.4	4	10	248	0.00	29.852 
21:10	35.5	35.5	35.5	61	23.4	3	7	248	0.00	29.852 
21:15	35.5	35.5	35.5	61	23.4	3	7	248	0.00	29.842 
21:20	35.5	35.5	35.5	62	23.8	3	10	270	0.00	29.842 
21:25	35.3	31.9	35.3	64	24.4	4	13	270	0.00	29.842 
21:30	35.3	31.0	35.3	64	24.4	5	12	270	0.00	29.841 
21:35	35.3	35.3	35.3	65	24.7	2	6	248	0.00	29.841 
21:40	35.2	31.8	35.2	66	25.0	4	11	248	0.00	29.841 
21:45	35.2	31.8	35.2	66	25.0	4	11	270	0.00	29.834 
21:50	35.2	31.8	35.2	66	25.0	4	10	248	0.00	29.834 
21:55	35.2	35.2	35.2	67	25.4	3	7	270	0.00	29.834 
22:00	35.0	35.0	35.0	69	25.9	3	10	270	0.00	29.824 
22:05	34.9	31.4	34.9	70	26.1	4	9	270	0.00	29.824 
22:10	34.6	34.6	34.6	71	26.2	2	6	248	0.00	29.824 
22:15	34.6	34.6	34.6	71	26.2	2	6	248	0.00	29.816 
22:20	34.7	31.2	34.7	71	26.3	4	11	270	0.00	29.816 
22:25	34.7	34.7	34.7	71	26.3	3	10	248	0.00	29.816 
22:30	34.7	34.7	34.7	71	26.3	2	7	248	0.00	29.808 
22:35	34.9	34.9	34.9	71	26.5	2	6	270	0.00	29.808 
22:40	34.9	34.9	34.9	71	26.5	2	5	270	0.00	29.808 
22:45	34.9	34.9	34.9	69	25.8	2	6	248	0.00	29.805 
22:50	35.0	35.0	35.0	68	25.5	2	7	248	0.00	29.805 
22:55	35.3	35.3	35.3	68	25.8	1	3	248	0.00	29.805 
23:00	35.5	32.1	35.5	66	25.3	4	10	248	0.00	29.793 
23:05	35.6	35.6	35.6	67	25.7	1	4	248	0.00	29.793 
23:10	35.6	35.6	35.6	67	25.7	1	4	248	0.00	29.793 
23:15	35.5	35.5	35.5	66	25.3	1	2	248	0.00	29.784 
23:20	35.5	35.5	35.5	66	25.3	1	3	248	0.00	29.784 
23:25	35.5	35.5	35.5	66	25.3	0	2	248	0.00	29.784 
23:30	35.6	35.6	35.6	65	25.0	1	3	248	0.00	29.779 
23:35	35.6	35.6	35.6	65	25.0	1	4	248	0.00	29.779 
23:40	35.6	35.6	35.6	64	24.6	1	3	248	0.00	29.779 
23:45	35.8	35.8	35.8	64	24.8	2	5	248	0.00	29.774 
23:50	35.8	35.8	35.8	64	24.8	2	5	270	0.00	29.774 
23:55	35.9	35.9	35.9	64	24.9	2	6	248	0.00	29.774 

CoCoRaHS
IN-AL-39
A2 Web Hosting
Creative Commons License
GoDaddy
Look for:

loaded 2017-12-13 19:32:21 • last modified 2010-11-18 10:43:29
Privacy PolicyDisclaimer
• wx.awcolley.com is powered by PmWiki v.2002016 •
• all content (unless otherwise noted) © 2017 A W Colley